Keeler Bay, Vermont
Current Conditions -  °F | °C
As of 7:53 PM on Tuesday 21 Oct 2014 (Local Time) from KPBG Reporting Station
Overcast Overcast  
Wind Chill: 39°   Ceiling: 700
Heat Index: 45°   Visibility: 9mi
Dew Point: 44°   Wind: 14mph
Humidity: 97%   Direction: 350°N
Pressure: 30.06"   Gusts: NA
Location:  44.6397°N, 73.3099°W
Report Text: KPBG 212353Z AUTO 35012KT 9SM OVC007 07/07 A3006 RMK AO2 RAB18E38 SLP182 P0000 60006 T00720067 10083 20072 51016
Loading
Personal Weather Stations






























Interactive Weather Map
Tropical Storm Tracking
New forecast layout! Learn more

10-Day Weather Forecast

Advertisements
Track Severe Weather on mobile